createdAt,value
2022-08-17T00:01:51.945Z,11.20
2022-08-17T00:04:22.310Z,11.00
2022-08-17T00:06:53.369Z,10.73
2022-08-17T00:09:25.845Z,11.30
2022-08-17T00:12:40.985Z,10.77
2022-08-17T00:14:45.307Z,11.20
2022-08-17T00:17:14.980Z,11.18
2022-08-17T00:19:44.721Z,10.97
2022-08-17T00:22:31.782Z,11.20
2022-08-17T00:25:09.734Z,10.70
2022-08-17T00:27:39.636Z,11.38
2022-08-17T00:30:12.054Z,11.15
2022-08-17T00:33:14.415Z,11.60
2022-08-17T00:35:32.951Z,11.30
2022-08-17T00:38:04.175Z,10.68
2022-08-17T00:40:39.856Z,10.90
2022-08-17T00:43:19.475Z,11.88
2022-08-17T00:45:49.795Z,11.57
2022-08-17T00:48:29.239Z,11.50
2022-08-17T00:51:02.484Z,11.70
2022-08-17T00:53:33.766Z,11.23
2022-08-17T00:56:09.340Z,11.57
2022-08-17T00:58:40.081Z,11.52
2022-08-17T01:01:11.190Z,12.25
2022-08-17T01:03:43.301Z,12.40
2022-08-17T01:06:13.545Z,11.98
2022-08-17T01:08:43.453Z,12.38
2022-08-17T01:11:17.260Z,11.70
2022-08-17T01:13:48.322Z,11.43
2022-08-17T01:16:21.051Z,12.40
2022-08-17T01:18:53.326Z,11.70
2022-08-17T01:21:35.359Z,11.23
2022-08-17T01:24:08.460Z,11.80
2022-08-17T01:26:41.186Z,11.70
2022-08-17T01:29:11.494Z,12.18
2022-08-17T01:31:44.413Z,12.57
2022-08-17T01:34:16.877Z,12.48
2022-08-17T01:36:49.354Z,11.88
2022-08-17T01:39:34.436Z,12.23
2022-08-17T01:42:08.986Z,12.38
2022-08-17T01:44:40.021Z,12.00
2022-08-17T01:47:09.722Z,12.47
2022-08-17T01:49:39.364Z,12.00
2022-08-17T01:52:10.558Z,12.20
2022-08-17T01:54:44.719Z,12.40
2022-08-17T01:57:14.648Z,11.20
2022-08-17T01:59:44.292Z,11.68
2022-08-17T02:02:31.231Z,12.10
2022-08-17T02:05:01.505Z,12.10
2022-08-17T02:07:31.236Z,12.43
2022-08-17T02:10:03.563Z,12.73
2022-08-17T02:12:46.398Z,12.27
2022-08-17T02:15:16.008Z,12.43
2022-08-17T02:17:46.211Z,12.80
2022-08-17T02:20:16.117Z,12.30
2022-08-17T02:23:06.425Z,12.30
2022-08-17T02:25:40.399Z,12.50
2022-08-17T02:28:10.096Z,12.90
2022-08-17T02:31:01.946Z,12.57
2022-08-17T02:33:42.196Z,13.05
2022-08-17T02:36:14.923Z,13.48
2022-08-17T02:38:45.059Z,12.38
2022-08-17T02:41:17.331Z,12.45
2022-08-17T02:43:47.013Z,13.57
2022-08-17T02:46:16.670Z,12.65
2022-08-17T02:48:46.362Z,12.80
2022-08-17T02:51:16.027Z,13.23
2022-08-17T02:53:46.772Z,13.48
2022-08-17T02:56:19.073Z,13.27
2022-08-17T02:58:49.217Z,13.17
2022-08-17T03:01:19.354Z,12.50
2022-08-17T03:03:49.057Z,13.43
2022-08-17T03:06:19.250Z,12.65
2022-08-17T03:08:48.925Z,12.77
2022-08-17T03:11:21.303Z,13.77
2022-08-17T03:13:51.099Z,12.95
2022-08-17T03:16:20.858Z,12.95
2022-08-17T03:18:50.549Z,13.27
2022-08-17T03:21:20.227Z,13.05
2022-08-17T03:23:49.881Z,13.43
2022-08-17T03:26:29.783Z,14.07
2022-08-17T03:28:59.714Z,12.90
2022-08-17T03:31:29.360Z,13.48
2022-08-17T03:33:59.176Z,13.15
2022-08-17T03:36:29.629Z,14.30
2022-08-17T03:39:01.044Z,14.63
2022-08-17T03:41:33.451Z,13.80
2022-08-17T03:44:03.364Z,14.65
2022-08-17T03:46:45.467Z,14.33
2022-08-17T03:49:27.570Z,13.88
2022-08-17T03:52:10.555Z,14.82
2022-08-17T03:54:52.717Z,13.50
2022-08-17T03:57:25.020Z,14.32
2022-08-17T03:59:54.725Z,14.20
2022-08-17T04:02:26.738Z,14.80
2022-08-17T04:04:56.929Z,13.77
2022-08-17T04:07:29.361Z,14.68
2022-08-17T04:09:59.667Z,14.13
2022-08-17T04:12:33.603Z,14.30
2022-08-17T04:15:03.873Z,14.38
2022-08-17T04:17:34.168Z,13.85
2022-08-17T04:20:04.511Z,12.93
2022-08-17T04:22:35.258Z,13.38
2022-08-17T04:25:08.343Z,13.10
2022-08-17T04:27:48.329Z,15.00
2022-08-17T04:30:18.565Z,14.18
2022-08-17T04:33:05.147Z,14.85
2022-08-17T04:35:39.224Z,14.17
2022-08-17T04:38:09.574Z,14.25
2022-08-17T04:40:51.741Z,13.52
2022-08-17T04:43:25.813Z,12.80
2022-08-17T04:45:57.583Z,13.88
2022-08-17T04:48:35.718Z,12.90
2022-08-17T04:51:09.521Z,13.55
2022-08-17T04:53:39.471Z,14.05
2022-08-17T04:56:11.707Z,13.75
2022-08-17T04:58:53.125Z,12.70
2022-08-17T05:01:24.885Z,14.05
2022-08-17T05:03:56.074Z,13.43
2022-08-17T05:06:26.477Z,14.50
2022-08-17T05:08:56.789Z,13.30
2022-08-17T05:11:26.809Z,13.63
2022-08-17T05:14:00.741Z,13.27
2022-08-17T05:16:32.048Z,14.18
2022-08-17T05:19:02.682Z,13.00
2022-08-17T05:21:32.425Z,12.73
2022-08-17T05:24:03.745Z,15.30
2022-08-17T05:26:39.385Z,13.25
2022-08-17T05:29:13.918Z,13.23
2022-08-17T05:31:43.630Z,12.83
2022-08-17T05:34:13.329Z,13.20
2022-08-17T05:36:44.618Z,13.40
2022-08-17T05:39:17.336Z,13.70
2022-08-17T05:41:50.601Z,13.85
2022-08-17T05:44:22.844Z,14.57
2022-08-17T05:46:54.419Z,13.65
2022-08-17T05:49:29.860Z,13.70
2022-08-17T05:52:20.001Z,13.15
2022-08-17T05:54:57.932Z,12.83
2022-08-17T05:57:39.575Z,13.40
2022-08-17T06:00:20.368Z,13.77
2022-08-17T06:03:00.644Z,13.35
2022-08-17T06:05:53.209Z,13.63
2022-08-17T06:08:29.120Z,14.70
2022-08-17T06:11:04.553Z,13.65
2022-08-17T06:13:54.497Z,13.55
2022-08-17T06:16:34.027Z,14.00
2022-08-17T06:19:07.313Z,13.70
2022-08-17T06:21:40.511Z,13.48
2022-08-17T06:24:15.951Z,13.40
2022-08-17T06:26:46.948Z,13.48
2022-08-17T06:29:23.986Z,12.48
2022-08-17T06:31:56.972Z,12.82
2022-08-17T06:34:26.800Z,12.82
2022-08-17T06:37:01.032Z,13.05
2022-08-17T06:39:42.099Z,11.75
2022-08-17T06:42:54.713Z,13.20
2022-08-17T06:45:15.133Z,12.98
2022-08-17T06:47:52.468Z,12.88
2022-08-17T06:50:26.432Z,12.45
2022-08-17T06:53:01.060Z,12.40
2022-08-17T06:55:38.322Z,11.60
2022-08-17T06:58:16.155Z,12.23
2022-08-17T07:00:48.673Z,12.60
2022-08-17T07:03:29.306Z,10.13
2022-08-17T07:06:02.164Z,10.32
2022-08-17T07:08:38.013Z,9.50
2022-08-17T07:11:13.065Z,9.50
2022-08-17T07:13:51.410Z,9.40
2022-08-17T07:16:27.514Z,9.40
2022-08-17T07:19:00.554Z,8.45
2022-08-17T07:21:40.886Z,6.38
2022-08-17T07:24:29.610Z,6.00
2022-08-17T07:27:09.343Z,6.10
2022-08-17T07:29:42.984Z,6.43
2022-08-17T07:32:14.568Z,6.35
2022-08-17T07:35:11.137Z,5.78
2022-08-17T07:37:42.337Z,6.40
2022-08-17T07:40:28.695Z,6.18
2022-08-17T07:43:15.644Z,6.32
2022-08-17T07:46:11.582Z,6.95
2022-08-17T07:48:42.969Z,7.38
2022-08-17T07:51:26.992Z,7.20
2022-08-17T07:54:13.087Z,7.83
2022-08-17T07:56:46.896Z,8.00
2022-08-17T07:59:23.323Z,8.47
2022-08-17T08:02:19.091Z,7.90
2022-08-17T08:05:01.320Z,8.90
2022-08-17T08:07:36.421Z,8.70
2022-08-17T08:10:13.125Z,8.68
2022-08-17T08:12:45.146Z,8.77
2022-08-17T08:15:22.844Z,9.60
2022-08-17T08:17:55.425Z,9.55
2022-08-17T08:20:51.432Z,9.83
2022-08-17T08:23:29.548Z,9.48
2022-08-17T08:26:08.107Z,9.65
2022-08-17T08:28:43.459Z,10.70
2022-08-17T08:31:24.462Z,10.10
2022-08-17T08:34:05.575Z,10.68
2022-08-17T08:37:14.545Z,11.27
2022-08-17T08:39:47.924Z,11.02
2022-08-17T08:42:23.365Z,10.85
2022-08-17T08:45:04.145Z,10.50
2022-08-17T08:47:51.454Z,11.43
2022-08-17T08:50:37.429Z,11.27
2022-08-17T08:53:18.962Z,11.10
2022-08-17T08:55:56.368Z,11.93
2022-08-17T08:58:41.919Z,11.70
2022-08-17T09:01:19.288Z,11.30
2022-08-17T09:04:23.267Z,12.10
2022-08-17T09:07:01.384Z,11.70
2022-08-17T09:09:41.480Z,11.00
2022-08-17T09:12:19.563Z,12.88
2022-08-17T09:14:56.858Z,12.25
2022-08-17T09:17:35.595Z,13.35
2022-08-17T09:20:14.413Z,13.45
2022-08-17T09:23:03.962Z,12.30
2022-08-17T09:25:35.980Z,12.97
2022-08-17T09:28:10.364Z,13.52
2022-08-17T09:30:44.178Z,12.10
2022-08-17T09:33:17.727Z,12.43
2022-08-17T09:35:51.144Z,13.63
2022-08-17T09:38:32.191Z,13.50
2022-08-17T09:41:11.750Z,13.00
2022-08-17T09:43:47.925Z,12.65
2022-08-17T09:46:20.801Z,14.50
2022-08-17T09:48:55.352Z,13.18
2022-08-17T09:51:30.321Z,13.30
2022-08-17T09:54:15.136Z,12.80
2022-08-17T09:57:25.893Z,11.80
2022-08-17T09:59:58.441Z,13.47
2022-08-17T10:02:54.096Z,12.00
2022-08-17T10:05:25.978Z,13.55
2022-08-17T10:08:01.921Z,14.07
2022-08-17T10:10:38.264Z,14.55
2022-08-17T10:13:20.369Z,14.00
2022-08-17T10:16:01.566Z,13.90
2022-08-17T10:18:41.911Z,13.50
2022-08-17T10:21:26.338Z,14.23
2022-08-17T10:24:12.966Z,13.95
2022-08-17T10:26:56.881Z,14.23
2022-08-17T10:29:31.342Z,16.70
2022-08-17T10:32:33.073Z,16.98
2022-08-17T10:35:16.060Z,15.35
2022-08-17T10:37:56.489Z,16.07
2022-08-17T10:40:38.735Z,17.02
2022-08-17T10:43:22.845Z,15.80
2022-08-17T10:46:09.469Z,16.20
2022-08-17T10:49:25.533Z,16.33
2022-08-17T10:51:56.282Z,15.75
2022-08-17T10:54:45.535Z,17.60
2022-08-17T10:57:43.272Z,14.82
2022-08-17T11:00:39.492Z,17.50
2022-08-17T11:03:18.772Z,16.90
2022-08-17T11:05:55.742Z,16.90
2022-08-17T11:08:57.601Z,18.77
2022-08-17T11:11:54.366Z,18.45
2022-08-17T11:14:47.325Z,19.17
2022-08-17T11:17:25.457Z,17.37
2022-08-17T11:20:16.805Z,18.58
2022-08-17T11:23:28.010Z,17.35
2022-08-17T11:26:01.833Z,17.52
2022-08-17T11:28:35.917Z,18.83
2022-08-17T11:31:10.609Z,16.53
2022-08-17T11:34:01.336Z,18.10
2022-08-17T11:36:49.296Z,19.65
2022-08-17T11:39:45.019Z,19.60
2022-08-17T11:42:29.692Z,19.40
2022-08-17T11:45:00.872Z,20.45
2022-08-17T11:48:02.500Z,20.60
2022-08-17T11:51:00.141Z,21.47
2022-08-17T11:56:55.538Z,22.58
2022-08-17T11:59:59.695Z,24.00
2022-08-17T12:02:36.155Z,23.90
2022-08-17T12:05:27.527Z,23.25
2022-08-17T12:08:08.719Z,24.90
2022-08-17T12:10:54.910Z,25.50
2022-08-17T12:13:30.580Z,26.40
2022-08-17T12:16:10.191Z,27.17
2022-08-17T12:18:41.991Z,27.65
2022-08-17T12:21:20.546Z,28.02
2022-08-17T12:23:57.664Z,31.17
2022-08-17T12:26:33.079Z,28.65
2022-08-17T12:29:04.211Z,32.42
2022-08-17T12:31:38.427Z,34.25
2022-08-17T12:34:08.198Z,31.50
2022-08-17T12:36:38.367Z,29.92
2022-08-17T12:39:14.248Z,32.38
2022-08-17T12:41:50.326Z,30.50
2022-08-17T12:44:22.117Z,28.75
2022-08-17T12:46:55.550Z,30.88
2022-08-17T12:49:30.979Z,31.70
2022-08-17T12:52:07.004Z,32.35
2022-08-17T12:54:42.630Z,33.45
2022-08-17T12:57:18.866Z,30.17
2022-08-17T12:59:53.534Z,31.75
2022-08-17T13:02:33.264Z,33.77
2022-08-17T13:05:04.492Z,34.03
2022-08-17T13:07:39.023Z,37.33
2022-08-17T13:10:09.399Z,34.30
2022-08-17T13:12:41.986Z,35.80
2022-08-17T13:15:22.382Z,33.42
2022-08-17T13:18:00.021Z,34.10
2022-08-17T13:20:29.760Z,33.33
2022-08-17T13:23:01.096Z,36.00
2022-08-17T13:25:32.197Z,34.95
2022-08-17T13:28:04.668Z,33.40
2022-08-17T13:30:35.332Z,35.38
2022-08-17T13:33:43.441Z,35.10
2022-08-17T13:36:19.472Z,32.80
2022-08-17T13:39:08.623Z,37.25
2022-08-17T13:41:40.196Z,34.28
2022-08-17T13:44:37.726Z,35.33
2022-08-17T13:47:08.972Z,32.30
2022-08-17T13:49:41.963Z,33.23
2022-08-17T13:52:37.868Z,34.08
2022-08-17T13:55:12.084Z,35.00
2022-08-17T13:57:41.744Z,37.10
2022-08-17T14:00:21.026Z,34.35
2022-08-17T14:02:50.671Z,38.15
2022-08-17T14:05:20.713Z,35.25
2022-08-17T14:07:50.988Z,36.00
2022-08-17T14:10:21.132Z,34.88
2022-08-17T14:12:50.916Z,34.15
2022-08-17T14:15:56.389Z,35.47
2022-08-17T14:18:17.761Z,35.17
2022-08-17T14:20:47.563Z,35.53
2022-08-17T14:23:17.736Z,33.38
2022-08-17T14:25:48.683Z,34.20
2022-08-17T14:28:18.455Z,29.58
2022-08-17T14:30:50.723Z,30.85
2022-08-17T14:33:24.965Z,29.60
2022-08-17T14:35:55.948Z,30.45
2022-08-17T14:38:25.911Z,30.63
2022-08-17T14:40:55.959Z,34.13
2022-08-17T14:43:25.638Z,32.90
2022-08-17T14:45:58.484Z,31.90
2022-08-17T14:48:28.880Z,31.67
2022-08-17T14:50:59.020Z,29.27
2022-08-17T14:53:28.827Z,25.30
2022-08-17T14:55:58.492Z,28.00
2022-08-17T14:58:29.408Z,32.47
2022-08-17T15:01:01.906Z,27.55
2022-08-17T15:03:31.873Z,27.67
2022-08-17T15:06:02.696Z,32.75
2022-08-17T15:08:32.808Z,31.70
2022-08-17T15:11:04.567Z,33.63
2022-08-17T15:13:34.302Z,37.03
2022-08-17T15:16:08.565Z,40.28
2022-08-17T15:18:39.258Z,39.80
2022-08-17T15:21:10.226Z,45.03
2022-08-17T15:23:41.741Z,45.10
2022-08-17T15:26:14.030Z,41.17
2022-08-17T15:28:43.737Z,45.28
2022-08-17T15:31:32.014Z,44.10
2022-08-17T15:34:05.342Z,46.60
2022-08-17T15:36:37.797Z,45.47
2022-08-17T15:39:10.977Z,46.45
2022-08-17T15:41:40.643Z,46.33
2022-08-17T15:44:10.489Z,52.33
2022-08-17T15:46:43.173Z,47.00
2022-08-17T15:49:13.793Z,47.95
2022-08-17T15:51:43.489Z,50.00
2022-08-17T15:54:17.270Z,49.33
2022-08-17T15:56:52.464Z,53.45
2022-08-17T15:59:22.147Z,48.90
2022-08-17T16:03:14.921Z,53.35
2022-08-17T16:04:45.444Z,50.23
2022-08-17T16:07:17.939Z,46.80
2022-08-17T16:09:47.898Z,50.45
2022-08-17T16:12:19.517Z,47.78
2022-08-17T16:14:51.742Z,47.67
2022-08-17T16:17:40.042Z,47.63
2022-08-17T16:20:20.242Z,44.60
2022-08-17T16:22:52.195Z,47.67
2022-08-17T16:25:47.127Z,46.70
2022-08-17T16:28:15.003Z,48.45
2022-08-17T16:30:44.716Z,44.10
2022-08-17T16:33:17.851Z,45.28
2022-08-17T16:35:47.523Z,43.50
2022-08-17T16:38:17.227Z,42.63
2022-08-17T16:40:46.868Z,40.42
2022-08-17T16:43:16.777Z,40.42
2022-08-17T16:45:51.858Z,38.33
2022-08-17T16:48:24.502Z,36.22
2022-08-17T16:50:59.991Z,34.08
2022-08-17T16:53:33.959Z,37.10
2022-08-17T16:56:03.669Z,37.63
2022-08-17T16:58:33.398Z,35.42
2022-08-17T17:01:03.169Z,34.55
2022-08-17T17:03:35.619Z,31.93
2022-08-17T17:06:13.484Z,30.45
2022-08-17T17:08:48.395Z,28.35
2022-08-17T17:11:34.188Z,29.63
2022-08-17T17:14:05.717Z,35.85
2022-08-17T17:16:47.010Z,37.42
2022-08-17T17:19:34.547Z,37.67
2022-08-17T17:22:10.557Z,32.88
2022-08-17T17:24:55.327Z,30.97
2022-08-17T17:27:32.360Z,32.83
2022-08-17T17:30:08.847Z,36.33
2022-08-17T17:32:42.510Z,38.65
2022-08-17T17:35:20.446Z,37.55
2022-08-17T17:37:50.315Z,40.25
2022-08-17T17:40:36.023Z,41.92
2022-08-17T17:43:37.070Z,38.70
2022-08-17T17:46:27.351Z,37.70
2022-08-17T17:48:55.264Z,38.78
2022-08-17T17:52:08.550Z,38.95
2022-08-17T17:54:32.479Z,34.80
2022-08-17T17:57:06.026Z,37.42
2022-08-17T17:59:44.127Z,39.47
2022-08-17T18:02:37.001Z,39.60
2022-08-17T18:05:14.111Z,39.03
2022-08-17T18:07:50.972Z,37.10
2022-08-17T18:10:30.021Z,37.78
2022-08-17T18:13:08.095Z,36.35
2022-08-17T18:15:41.663Z,39.63
2022-08-17T18:18:44.575Z,35.47
2022-08-17T18:21:19.360Z,39.43
2022-08-17T18:23:56.114Z,37.90
2022-08-17T18:26:45.488Z,39.63
2022-08-17T18:29:37.585Z,36.28
2022-08-17T18:32:18.934Z,35.90
2022-08-17T18:34:50.308Z,36.42
2022-08-17T18:37:34.619Z,35.55
2022-08-17T18:40:27.804Z,34.45
2022-08-17T18:43:05.610Z,34.63
2022-08-17T18:45:38.815Z,34.25
2022-08-17T18:48:10.845Z,30.67
2022-08-17T18:50:43.585Z,33.55
2022-08-17T18:53:26.467Z,34.30
2022-08-17T18:56:18.989Z,32.03
2022-08-17T18:58:54.220Z,34.67
2022-08-17T19:01:48.838Z,34.25
2022-08-17T19:04:33.867Z,33.10
2022-08-17T19:07:14.144Z,31.88
2022-08-17T19:09:47.097Z,33.00
2022-08-17T19:12:27.478Z,33.90
2022-08-17T19:14:58.507Z,32.30
2022-08-17T19:17:33.179Z,32.55
2022-08-17T19:20:09.864Z,31.88
2022-08-17T19:23:08.398Z,33.90
2022-08-17T19:25:41.984Z,32.15
2022-08-17T19:28:22.211Z,32.45
2022-08-17T19:30:53.825Z,33.15
2022-08-17T19:33:23.583Z,32.83
2022-08-17T19:36:01.650Z,33.15
2022-08-17T19:38:43.455Z,33.05
2022-08-17T19:41:18.938Z,33.55
2022-08-17T19:43:59.894Z,33.50
2022-08-17T19:46:35.654Z,32.50
2022-08-17T19:49:10.151Z,34.17
2022-08-17T19:51:46.406Z,33.13
2022-08-17T19:54:20.509Z,32.53
2022-08-17T19:56:58.273Z,33.67
2022-08-17T19:59:51.629Z,32.17
2022-08-17T20:02:34.152Z,32.03
2022-08-17T20:05:08.851Z,31.02
2022-08-17T20:07:46.115Z,34.50
2022-08-17T20:10:23.693Z,33.25
2022-08-17T20:12:54.428Z,31.52
2022-08-17T20:15:30.859Z,31.53
2022-08-17T20:18:02.863Z,31.17
2022-08-17T20:20:36.554Z,31.70
2022-08-17T20:23:13.378Z,31.73
2022-08-17T20:25:48.276Z,32.50
2022-08-17T20:28:22.620Z,32.33
2022-08-17T20:30:57.337Z,31.35
2022-08-17T20:33:30.374Z,32.60
2022-08-17T20:36:08.375Z,33.88
2022-08-17T20:38:43.367Z,33.35
2022-08-17T20:41:16.373Z,34.58
2022-08-17T20:44:03.771Z,34.00
2022-08-17T20:46:54.936Z,34.28
2022-08-17T20:49:28.915Z,34.00
2022-08-17T20:52:02.955Z,34.03
2022-08-17T20:54:51.741Z,32.55
2022-08-17T20:57:47.445Z,32.83
2022-08-17T21:00:45.248Z,36.10
2022-08-17T21:03:50.187Z,36.10
2022-08-17T21:06:28.005Z,35.20
2022-08-17T21:09:02.210Z,36.08
2022-08-17T21:11:56.974Z,35.92
2022-08-17T21:14:59.687Z,35.28
2022-08-17T21:17:46.541Z,34.75
2022-08-17T21:20:32.355Z,34.80
2022-08-17T21:23:32.123Z,34.03
2022-08-17T21:26:15.704Z,32.95
2022-08-17T21:29:00.640Z,34.57
2022-08-17T21:31:36.890Z,33.88
2022-08-17T21:34:43.225Z,34.38
2022-08-17T21:37:32.346Z,32.90
2022-08-17T21:40:04.241Z,34.38
2022-08-17T21:42:39.029Z,35.58
2022-08-17T21:45:13.348Z,36.10
2022-08-17T21:47:45.268Z,34.97
2022-08-17T21:50:20.936Z,36.83
2022-08-17T21:52:54.039Z,37.10
2022-08-17T21:55:29.695Z,35.90
2022-08-17T21:58:14.100Z,36.60
2022-08-17T22:00:45.446Z,35.47
2022-08-17T22:03:25.974Z,35.53
2022-08-17T22:05:55.722Z,36.10
2022-08-17T22:08:28.861Z,36.55
2022-08-17T22:11:04.664Z,37.78
2022-08-17T22:13:41.224Z,36.97
2022-08-17T22:16:27.659Z,36.40
2022-08-17T22:18:59.289Z,37.35
2022-08-17T22:21:29.141Z,37.03
2022-08-17T22:24:05.157Z,37.03
2022-08-17T22:27:07.043Z,35.88
2022-08-17T22:29:57.818Z,36.42
2022-08-17T22:32:45.063Z,38.60
2022-08-17T22:35:35.380Z,38.60
2022-08-17T22:38:35.311Z,36.50
2022-08-17T22:41:30.239Z,38.40
2022-08-17T22:44:02.395Z,36.63
2022-08-17T22:46:44.366Z,36.95
2022-08-17T22:49:14.139Z,38.10
2022-08-17T22:51:43.901Z,37.60
2022-08-17T22:54:31.260Z,37.15
2022-08-17T22:57:15.123Z,38.25
2022-08-17T22:59:51.467Z,37.58
2022-08-17T23:02:26.553Z,36.95
2022-08-17T23:04:59.301Z,37.30
2022-08-17T23:07:28.990Z,36.45
2022-08-17T23:10:00.260Z,36.65
2022-08-17T23:12:29.992Z,38.55
2022-08-17T23:15:01.668Z,38.15
2022-08-17T23:17:37.352Z,36.57
2022-08-17T23:20:10.391Z,36.97
2022-08-17T23:22:51.748Z,35.57
2022-08-17T23:25:28.939Z,38.35
2022-08-17T23:28:01.439Z,38.13
2022-08-17T23:30:31.534Z,36.57
2022-08-17T23:33:06.837Z,37.72
2022-08-17T23:35:40.445Z,37.20
2022-08-17T23:38:11.978Z,37.40
2022-08-17T23:40:42.455Z,37.57
2022-08-17T23:43:24.412Z,36.42
2022-08-17T23:45:57.498Z,38.43
2022-08-17T23:48:35.592Z,36.15
2022-08-17T23:51:08.652Z,37.95
2022-08-17T23:53:39.178Z,37.55
2022-08-17T23:56:11.280Z,37.00
2022-08-17T23:58:42.579Z,38.28
